sensor_id;sensor_type;location;lat;lon;timestamp;P1;durP1;ratioP1;P2;durP2;ratioP2
20597;SDS011;10457;48.770;11.446;2023-03-23T00:01:45;14.03;;;7.20;;
20597;SDS011;10457;48.770;11.446;2023-03-23T00:07:10;9.00;;;7.27;;
20597;SDS011;10457;48.770;11.446;2023-03-23T00:12:32;13.67;;;8.17;;
20597;SDS011;10457;48.770;11.446;2023-03-23T00:17:53;12.17;;;7.60;;
20597;SDS011;10457;48.770;11.446;2023-03-23T00:23:23;12.13;;;7.60;;
20597;SDS011;10457;48.770;11.446;2023-03-23T00:28:48;8.87;;;6.00;;
20597;SDS011;10457;48.770;11.446;2023-03-23T00:34:10;9.87;;;7.27;;
20597;SDS011;10457;48.770;11.446;2023-03-23T00:39:33;8.07;;;6.93;;
20597;SDS011;10457;48.770;11.446;2023-03-23T00:44:56;9.73;;;6.77;;
20597;SDS011;10457;48.770;11.446;2023-03-23T00:50:19;11.93;;;7.87;;
20597;SDS011;10457;48.770;11.446;2023-03-23T00:55:42;15.70;;;9.73;;
20597;SDS011;10457;48.770;11.446;2023-03-23T01:01:04;16.70;;;10.37;;
20597;SDS011;10457;48.770;11.446;2023-03-23T01:06:26;15.77;;;10.53;;
20597;SDS011;10457;48.770;11.446;2023-03-23T01:11:51;23.93;;;11.73;;
20597;SDS011;10457;48.770;11.446;2023-03-23T01:17:15;23.17;;;11.20;;
20597;SDS011;10457;48.770;11.446;2023-03-23T01:22:38;15.80;;;10.70;;
20597;SDS011;10457;48.770;11.446;2023-03-23T01:28:01;20.10;;;10.67;;
20597;SDS011;10457;48.770;11.446;2023-03-23T01:33:23;13.97;;;9.60;;
20597;SDS011;10457;48.770;11.446;2023-03-23T01:38:47;11.67;;;6.93;;
20597;SDS011;10457;48.770;11.446;2023-03-23T01:50:37;12.73;;;7.07;;
20597;SDS011;10457;48.770;11.446;2023-03-23T01:56:08;9.97;;;6.70;;
20597;SDS011;10457;48.770;11.446;2023-03-23T02:01:32;9.27;;;6.83;;
20597;SDS011;10457;48.770;11.446;2023-03-23T02:06:59;13.50;;;7.20;;
20597;SDS011;10457;48.770;11.446;2023-03-23T02:12:21;8.43;;;6.07;;
20597;SDS011;10457;48.770;11.446;2023-03-23T02:17:46;11.17;;;6.47;;
20597;SDS011;10457;48.770;11.446;2023-03-23T02:23:34;12.13;;;6.73;;
20597;SDS011;10457;48.770;11.446;2023-03-23T02:29:27;10.93;;;6.40;;
20597;SDS011;10457;48.770;11.446;2023-03-23T02:35:15;8.03;;;6.50;;
20597;SDS011;10457;48.770;11.446;2023-03-23T02:40:41;12.40;;;6.63;;
20597;SDS011;10457;48.770;11.446;2023-03-23T02:46:06;8.10;;;7.03;;
20597;SDS011;10457;48.770;11.446;2023-03-23T02:51:31;11.70;;;6.70;;
20597;SDS011;10457;48.770;11.446;2023-03-23T02:56:55;9.93;;;6.53;;
20597;SDS011;10457;48.770;11.446;2023-03-23T03:02:22;10.10;;;7.10;;
20597;SDS011;10457;48.770;11.446;2023-03-23T03:07:53;11.77;;;6.33;;
20597;SDS011;10457;48.770;11.446;2023-03-23T03:13:32;12.77;;;6.57;;
20597;SDS011;10457;48.770;11.446;2023-03-23T03:19:03;11.00;;;7.13;;
20597;SDS011;10457;48.770;11.446;2023-03-23T03:24:30;9.60;;;6.73;;
20597;SDS011;10457;48.770;11.446;2023-03-23T03:29:53;9.13;;;6.80;;
20597;SDS011;10457;48.770;11.446;2023-03-23T03:35:19;9.77;;;7.10;;
20597;SDS011;10457;48.770;11.446;2023-03-23T03:40:45;11.17;;;7.37;;
20597;SDS011;10457;48.770;11.446;2023-03-23T03:46:06;10.60;;;6.87;;
20597;SDS011;10457;48.770;11.446;2023-03-23T03:51:28;10.17;;;6.97;;
20597;SDS011;10457;48.770;11.446;2023-03-23T03:56:52;14.03;;;6.97;;
20597;SDS011;10457;48.770;11.446;2023-03-23T04:02:37;13.20;;;6.83;;
20597;SDS011;10457;48.770;11.446;2023-03-23T04:08:00;10.80;;;6.97;;
20597;SDS011;10457;48.770;11.446;2023-03-23T04:13:26;10.30;;;7.03;;
20597;SDS011;10457;48.770;11.446;2023-03-23T04:19:10;11.40;;;8.90;;
20597;SDS011;10457;48.770;11.446;2023-03-23T04:24:32;10.87;;;7.83;;
20597;SDS011;10457;48.770;11.446;2023-03-23T04:29:58;12.63;;;7.73;;
20597;SDS011;10457;48.770;11.446;2023-03-23T04:35:33;12.10;;;9.07;;
20597;SDS011;10457;48.770;11.446;2023-03-23T04:41:21;11.37;;;8.10;;
20597;SDS011;10457;48.770;11.446;2023-03-23T04:46:55;12.20;;;8.47;;
20597;SDS011;10457;48.770;11.446;2023-03-23T04:52:17;13.00;;;8.57;;
20597;SDS011;10457;48.770;11.446;2023-03-23T04:57:44;13.57;;;8.30;;
20597;SDS011;10457;48.770;11.446;2023-03-23T05:03:26;14.73;;;8.77;;
20597;SDS011;10457;48.770;11.446;2023-03-23T05:08:50;13.77;;;9.43;;
20597;SDS011;10457;48.770;11.446;2023-03-23T05:14:14;10.63;;;8.13;;
20597;SDS011;10457;48.770;11.446;2023-03-23T05:19:40;9.37;;;7.23;;
20597;SDS011;10457;48.770;11.446;2023-03-23T05:25:20;10.83;;;7.77;;
20597;SDS011;10457;48.770;11.446;2023-03-23T05:30:52;12.57;;;7.97;;
20597;SDS011;10457;48.770;11.446;2023-03-23T05:36:17;12.80;;;8.07;;
20597;SDS011;10457;48.770;11.446;2023-03-23T05:42:02;12.53;;;7.27;;
20597;SDS011;10457;48.770;11.446;2023-03-23T05:47:37;11.13;;;7.80;;
20597;SDS011;10457;48.770;11.446;2023-03-23T05:53:05;13.87;;;7.53;;
20597;SDS011;10457;48.770;11.446;2023-03-23T05:58:31;12.33;;;7.77;;
20597;SDS011;10457;48.770;11.446;2023-03-23T06:03:53;17.90;;;7.10;;
20597;SDS011;10457;48.770;11.446;2023-03-23T06:09:23;16.67;;;7.80;;
20597;SDS011;10457;48.770;11.446;2023-03-23T06:15:03;9.03;;;6.93;;
20597;SDS011;10457;48.770;11.446;2023-03-23T06:20:45;17.10;;;8.23;;
20597;SDS011;10457;48.770;11.446;2023-03-23T06:26:18;15.50;;;7.10;;
20597;SDS011;10457;48.770;11.446;2023-03-23T06:31:48;15.37;;;7.60;;
20597;SDS011;10457;48.770;11.446;2023-03-23T06:37:14;11.83;;;7.03;;
20597;SDS011;10457;48.770;11.446;2023-03-23T06:42:47;10.23;;;6.73;;
20597;SDS011;10457;48.770;11.446;2023-03-23T06:48:17;35.97;;;10.43;;
20597;SDS011;10457;48.770;11.446;2023-03-23T06:53:39;16.20;;;9.30;;
20597;SDS011;10457;48.770;11.446;2023-03-23T06:59:06;17.47;;;8.33;;
20597;SDS011;10457;48.770;11.446;2023-03-23T07:04:29;12.77;;;7.77;;
20597;SDS011;10457;48.770;11.446;2023-03-23T07:09:58;14.23;;;7.70;;
20597;SDS011;10457;48.770;11.446;2023-03-23T07:15:21;13.30;;;7.83;;
20597;SDS011;10457;48.770;11.446;2023-03-23T07:20:46;12.60;;;7.00;;
20597;SDS011;10457;48.770;11.446;2023-03-23T07:26:09;11.53;;;7.40;;
20597;SDS011;10457;48.770;11.446;2023-03-23T07:31:37;11.67;;;7.77;;
20597;SDS011;10457;48.770;11.446;2023-03-23T07:36:58;11.30;;;7.50;;
20597;SDS011;10457;48.770;11.446;2023-03-23T07:42:22;15.97;;;7.97;;
20597;SDS011;10457;48.770;11.446;2023-03-23T07:47:55;19.85;;;8.02;;
20597;SDS011;10457;48.770;11.446;2023-03-23T07:53:17;12.25;;;7.82;;
20597;SDS011;10457;48.770;11.446;2023-03-23T07:58:47;8.45;;;7.03;;
20597;SDS011;10457;48.770;11.446;2023-03-23T08:04:11;7.97;;;5.95;;
20597;SDS011;10457;48.770;11.446;2023-03-23T08:09:56;12.35;;;8.23;;
20597;SDS011;10457;48.770;11.446;2023-03-23T08:15:23;10.05;;;7.45;;
20597;SDS011;10457;48.770;11.446;2023-03-23T08:20:47;15.68;;;6.90;;
20597;SDS011;10457;48.770;11.446;2023-03-23T08:26:39;8.63;;;6.03;;
20597;SDS011;10457;48.770;11.446;2023-03-23T08:32:19;10.75;;;6.78;;
20597;SDS011;10457;48.770;11.446;2023-03-23T08:37:56;9.68;;;6.40;;
20597;SDS011;10457;48.770;11.446;2023-03-23T08:43:34;7.68;;;5.22;;
20597;SDS011;10457;48.770;11.446;2023-03-23T08:49:14;8.75;;;5.32;;
20597;SDS011;10457;48.770;11.446;2023-03-23T08:54:47;8.25;;;5.57;;
20597;SDS011;10457;48.770;11.446;2023-03-23T09:00:19;7.63;;;4.38;;
20597;SDS011;10457;48.770;11.446;2023-03-23T09:06:05;9.27;;;4.93;;
20597;SDS011;10457;48.770;11.446;2023-03-23T09:11:40;7.50;;;4.07;;
20597;SDS011;10457;48.770;11.446;2023-03-23T09:17:01;11.05;;;7.15;;
20597;SDS011;10457;48.770;11.446;2023-03-23T09:22:23;7.32;;;4.82;;
20597;SDS011;10457;48.770;11.446;2023-03-23T09:27:46;5.97;;;3.35;;
20597;SDS011;10457;48.770;11.446;2023-03-23T09:33:12;6.35;;;3.13;;
20597;SDS011;10457;48.770;11.446;2023-03-23T09:38:34;5.82;;;3.13;;
20597;SDS011;10457;48.770;11.446;2023-03-23T09:44:01;7.15;;;2.95;;
20597;SDS011;10457;48.770;11.446;2023-03-23T09:49:29;6.45;;;2.92;;
20597;SDS011;10457;48.770;11.446;2023-03-23T09:54:55;4.15;;;2.78;;
20597;SDS011;10457;48.770;11.446;2023-03-23T10:00:20;7.65;;;2.85;;
20597;SDS011;10457;48.770;11.446;2023-03-23T10:05:46;3.80;;;2.97;;
20597;SDS011;10457;48.770;11.446;2023-03-23T10:11:12;2.72;;;2.42;;
20597;SDS011;10457;48.770;11.446;2023-03-23T10:16:48;4.63;;;2.55;;
20597;SDS011;10457;48.770;11.446;2023-03-23T10:22:25;2.63;;;2.42;;
20597;SDS011;10457;48.770;11.446;2023-03-23T10:27:52;4.38;;;2.95;;
20597;SDS011;10457;48.770;11.446;2023-03-23T10:33:23;4.15;;;3.00;;
20597;SDS011;10457;48.770;11.446;2023-03-23T10:38:53;4.93;;;3.22;;
20597;SDS011;10457;48.770;11.446;2023-03-23T10:44:23;5.50;;;2.42;;
20597;SDS011;10457;48.770;11.446;2023-03-23T10:49:48;3.05;;;2.72;;
20597;SDS011;10457;48.770;11.446;2023-03-23T10:55:14;4.45;;;2.70;;
20597;SDS011;10457;48.770;11.446;2023-03-23T11:00:39;5.72;;;2.25;;
20597;SDS011;10457;48.770;11.446;2023-03-23T11:06:08;1.98;;;1.75;;
20597;SDS011;10457;48.770;11.446;2023-03-23T11:11:31;3.63;;;2.55;;
20597;SDS011;10457;48.770;11.446;2023-03-23T11:17:02;3.95;;;2.28;;
20597;SDS011;10457;48.770;11.446;2023-03-23T11:22:29;2.97;;;2.30;;
20597;SDS011;10457;48.770;11.446;2023-03-23T11:27:54;1.98;;;1.65;;
20597;SDS011;10457;48.770;11.446;2023-03-23T11:33:16;3.00;;;1.95;;
20597;SDS011;10457;48.770;11.446;2023-03-23T11:38:40;3.53;;;2.13;;
20597;SDS011;10457;48.770;11.446;2023-03-23T11:44:08;2.28;;;1.80;;
20597;SDS011;10457;48.770;11.446;2023-03-23T11:49:36;2.88;;;1.90;;
20597;SDS011;10457;48.770;11.446;2023-03-23T11:55:09;3.50;;;1.67;;
20597;SDS011;10457;48.770;11.446;2023-03-23T12:00:35;4.75;;;2.38;;
20597;SDS011;10457;48.770;11.446;2023-03-23T12:05:59;3.78;;;1.95;;
20597;SDS011;10457;48.770;11.446;2023-03-23T12:11:33;5.72;;;2.55;;
20597;SDS011;10457;48.770;11.446;2023-03-23T12:17:05;2.25;;;2.03;;
20597;SDS011;10457;48.770;11.446;2023-03-23T12:22:42;5.30;;;3.50;;
20597;SDS011;10457;48.770;11.446;2023-03-23T12:28:17;9.80;;;8.65;;
20597;SDS011;10457;48.770;11.446;2023-03-23T12:33:52;3.63;;;3.15;;
20597;SDS011;10457;48.770;11.446;2023-03-23T12:45:48;3.47;;;3.17;;
20597;SDS011;10457;48.770;11.446;2023-03-23T12:51:20;2.30;;;1.95;;
20597;SDS011;10457;48.770;11.446;2023-03-23T12:56:51;4.07;;;2.42;;
20597;SDS011;10457;48.770;11.446;2023-03-23T13:02:22;3.67;;;2.55;;
20597;SDS011;10457;48.770;11.446;2023-03-23T13:07:47;5.95;;;3.42;;
20597;SDS011;10457;48.770;11.446;2023-03-23T13:13:14;6.57;;;3.35;;
20597;SDS011;10457;48.770;11.446;2023-03-23T13:18:44;5.93;;;2.90;;
20597;SDS011;10457;48.770;11.446;2023-03-23T13:24:16;3.70;;;2.20;;
20597;SDS011;10457;48.770;11.446;2023-03-23T13:29:43;3.72;;;2.30;;
20597;SDS011;10457;48.770;11.446;2023-03-23T13:35:12;3.67;;;2.58;;
20597;SDS011;10457;48.770;11.446;2023-03-23T13:40:40;3.13;;;2.05;;
20597;SDS011;10457;48.770;11.446;2023-03-23T13:46:08;5.18;;;3.15;;
20597;SDS011;10457;48.770;11.446;2023-03-23T13:51:51;5.15;;;3.28;;
20597;SDS011;10457;48.770;11.446;2023-03-23T13:57:33;3.97;;;2.78;;
20597;SDS011;10457;48.770;11.446;2023-03-23T14:02:59;5.22;;;3.72;;
20597;SDS011;10457;48.770;11.446;2023-03-23T14:08:24;2.90;;;2.10;;
20597;SDS011;10457;48.770;11.446;2023-03-23T14:14:00;7.38;;;2.55;;
20597;SDS011;10457;48.770;11.446;2023-03-23T14:19:25;5.05;;;2.35;;
20597;SDS011;10457;48.770;11.446;2023-03-23T14:24:50;3.30;;;2.10;;
20597;SDS011;10457;48.770;11.446;2023-03-23T14:30:15;5.32;;;2.30;;
20597;SDS011;10457;48.770;11.446;2023-03-23T14:35:40;3.90;;;2.40;;
20597;SDS011;10457;48.770;11.446;2023-03-23T14:41:10;3.80;;;2.20;;
20597;SDS011;10457;48.770;11.446;2023-03-23T14:46:33;3.72;;;2.40;;
20597;SDS011;10457;48.770;11.446;2023-03-23T14:51:55;3.58;;;2.97;;
20597;SDS011;10457;48.770;11.446;2023-03-23T14:57:19;3.53;;;2.95;;
20597;SDS011;10457;48.770;11.446;2023-03-23T15:02:47;4.45;;;2.65;;
20597;SDS011;10457;48.770;11.446;2023-03-23T15:08:13;8.05;;;2.58;;
20597;SDS011;10457;48.770;11.446;2023-03-23T15:13:42;6.22;;;2.65;;
20597;SDS011;10457;48.770;11.446;2023-03-23T15:19:06;4.05;;;3.00;;
20597;SDS011;10457;48.770;11.446;2023-03-23T15:24:37;6.68;;;3.35;;
20597;SDS011;10457;48.770;11.446;2023-03-23T15:30:12;3.80;;;2.30;;
20597;SDS011;10457;48.770;11.446;2023-03-23T15:35:39;4.22;;;2.78;;
20597;SDS011;10457;48.770;11.446;2023-03-23T15:41:06;3.58;;;2.22;;
20597;SDS011;10457;48.770;11.446;2023-03-23T15:46:48;4.35;;;2.13;;
20597;SDS011;10457;48.770;11.446;2023-03-23T15:52:12;2.30;;;1.95;;
20597;SDS011;10457;48.770;11.446;2023-03-23T15:57:35;4.22;;;2.90;;
20597;SDS011;10457;48.770;11.446;2023-03-23T16:02:58;4.85;;;2.60;;
20597;SDS011;10457;48.770;11.446;2023-03-23T16:08:22;3.80;;;2.40;;
20597;SDS011;10457;48.770;11.446;2023-03-23T16:13:44;4.57;;;2.35;;
20597;SDS011;10457;48.770;11.446;2023-03-23T16:19:07;3.17;;;2.13;;
20597;SDS011;10457;48.770;11.446;2023-03-23T16:24:32;8.32;;;2.45;;
20597;SDS011;10457;48.770;11.446;2023-03-23T16:29:54;3.75;;;2.60;;
20597;SDS011;10457;48.770;11.446;2023-03-23T16:35:18;2.65;;;2.20;;
20597;SDS011;10457;48.770;11.446;2023-03-23T16:40:41;4.78;;;2.30;;
20597;SDS011;10457;48.770;11.446;2023-03-23T16:46:03;3.40;;;1.83;;
20597;SDS011;10457;48.770;11.446;2023-03-23T16:51:26;4.18;;;2.15;;
20597;SDS011;10457;48.770;11.446;2023-03-23T16:56:47;5.97;;;2.28;;
20597;SDS011;10457;48.770;11.446;2023-03-23T17:02:09;4.22;;;2.78;;
20597;SDS011;10457;48.770;11.446;2023-03-23T17:07:33;3.90;;;2.50;;
20597;SDS011;10457;48.770;11.446;2023-03-23T17:12:54;3.00;;;2.50;;
20597;SDS011;10457;48.770;11.446;2023-03-23T17:18:17;3.63;;;2.72;;
20597;SDS011;10457;48.770;11.446;2023-03-23T17:23:39;5.45;;;3.83;;
20597;SDS011;10457;48.770;11.446;2023-03-23T17:29:01;6.95;;;3.03;;
20597;SDS011;10457;48.770;11.446;2023-03-23T17:34:23;4.07;;;2.55;;
20597;SDS011;10457;48.770;11.446;2023-03-23T17:39:46;3.40;;;2.40;;
20597;SDS011;10457;48.770;11.446;2023-03-23T17:45:08;4.97;;;2.50;;
20597;SDS011;10457;48.770;11.446;2023-03-23T17:50:30;4.95;;;3.22;;
20597;SDS011;10457;48.770;11.446;2023-03-23T17:55:52;3.53;;;2.45;;
20597;SDS011;10457;48.770;11.446;2023-03-23T18:01:14;5.85;;;3.40;;
20597;SDS011;10457;48.770;11.446;2023-03-23T18:06:36;6.10;;;3.03;;
20597;SDS011;10457;48.770;11.446;2023-03-23T18:11:59;4.80;;;3.33;;
20597;SDS011;10457;48.770;11.446;2023-03-23T18:17:20;7.13;;;3.58;;
20597;SDS011;10457;48.770;11.446;2023-03-23T18:22:42;3.78;;;2.53;;
20597;SDS011;10457;48.770;11.446;2023-03-23T18:28:05;4.93;;;2.90;;
20597;SDS011;10457;48.770;11.446;2023-03-23T18:33:27;9.00;;;3.75;;
20597;SDS011;10457;48.770;11.446;2023-03-23T18:38:48;3.05;;;2.60;;
20597;SDS011;10457;48.770;11.446;2023-03-23T18:44:12;3.80;;;2.67;;
20597;SDS011;10457;48.770;11.446;2023-03-23T18:49:33;4.47;;;2.40;;
20597;SDS011;10457;48.770;11.446;2023-03-23T18:54:55;2.72;;;2.47;;
20597;SDS011;10457;48.770;11.446;2023-03-23T19:00:18;6.43;;;3.97;;
20597;SDS011;10457;48.770;11.446;2023-03-23T19:05:41;7.88;;;4.50;;
20597;SDS011;10457;48.770;11.446;2023-03-23T19:11:03;4.63;;;3.42;;
20597;SDS011;10457;48.770;11.446;2023-03-23T19:16:28;5.70;;;3.80;;
20597;SDS011;10457;48.770;11.446;2023-03-23T19:21:50;5.90;;;3.65;;
20597;SDS011;10457;48.770;11.446;2023-03-23T19:27:12;5.60;;;4.15;;
20597;SDS011;10457;48.770;11.446;2023-03-23T19:32:35;5.80;;;4.00;;
20597;SDS011;10457;48.770;11.446;2023-03-23T19:37:56;4.32;;;3.45;;
20597;SDS011;10457;48.770;11.446;2023-03-23T19:43:18;7.25;;;3.50;;
20597;SDS011;10457;48.770;11.446;2023-03-23T19:48:41;5.20;;;3.13;;
20597;SDS011;10457;48.770;11.446;2023-03-23T19:54:03;9.63;;;7.20;;
20597;SDS011;10457;48.770;11.446;2023-03-23T19:59:26;4.97;;;3.22;;
20597;SDS011;10457;48.770;11.446;2023-03-23T20:04:49;4.68;;;3.40;;
20597;SDS011;10457;48.770;11.446;2023-03-23T20:10:10;4.55;;;3.15;;
20597;SDS011;10457;48.770;11.446;2023-03-23T20:15:32;4.60;;;2.90;;
20597;SDS011;10457;48.770;11.446;2023-03-23T20:21:00;5.07;;;3.03;;
20597;SDS011;10457;48.770;11.446;2023-03-23T20:26:23;4.88;;;3.15;;
20597;SDS011;10457;48.770;11.446;2023-03-23T20:31:48;4.40;;;3.53;;
20597;SDS011;10457;48.770;11.446;2023-03-23T20:37:11;3.95;;;3.22;;
20597;SDS011;10457;48.770;11.446;2023-03-23T20:42:36;5.82;;;4.20;;
20597;SDS011;10457;48.770;11.446;2023-03-23T20:48:02;6.13;;;4.15;;
20597;SDS011;10457;48.770;11.446;2023-03-23T20:53:26;5.57;;;3.15;;
20597;SDS011;10457;48.770;11.446;2023-03-23T20:58:49;5.75;;;3.35;;
20597;SDS011;10457;48.770;11.446;2023-03-23T21:04:11;3.88;;;3.47;;
20597;SDS011;10457;48.770;11.446;2023-03-23T21:09:39;4.57;;;3.28;;
20597;SDS011;10457;48.770;11.446;2023-03-23T21:15:01;5.72;;;3.92;;
20597;SDS011;10457;48.770;11.446;2023-03-23T21:20:25;3.97;;;2.88;;
20597;SDS011;10457;48.770;11.446;2023-03-23T21:25:48;6.03;;;4.00;;
20597;SDS011;10457;48.770;11.446;2023-03-23T21:31:09;4.20;;;3.55;;
20597;SDS011;10457;48.770;11.446;2023-03-23T21:36:31;6.32;;;3.15;;
20597;SDS011;10457;48.770;11.446;2023-03-23T21:41:55;7.53;;;2.92;;
20597;SDS011;10457;48.770;11.446;2023-03-23T21:47:17;3.95;;;3.25;;
20597;SDS011;10457;48.770;11.446;2023-03-23T21:52:39;11.27;;;3.45;;
20597;SDS011;10457;48.770;11.446;2023-03-23T21:58:03;7.22;;;3.08;;
20597;SDS011;10457;48.770;11.446;2023-03-23T22:03:25;6.53;;;3.58;;
20597;SDS011;10457;48.770;11.446;2023-03-23T22:08:51;4.53;;;3.17;;
20597;SDS011;10457;48.770;11.446;2023-03-23T22:14:15;4.82;;;3.47;;
20597;SDS011;10457;48.770;11.446;2023-03-23T22:19:36;4.95;;;3.28;;
20597;SDS011;10457;48.770;11.446;2023-03-23T22:24:58;4.97;;;3.22;;
20597;SDS011;10457;48.770;11.446;2023-03-23T22:30:21;5.18;;;3.22;;
20597;SDS011;10457;48.770;11.446;2023-03-23T22:35:43;3.28;;;2.97;;
20597;SDS011;10457;48.770;11.446;2023-03-23T22:41:05;4.10;;;3.45;;
20597;SDS011;10457;48.770;11.446;2023-03-23T22:46:31;3.70;;;3.30;;
20597;SDS011;10457;48.770;11.446;2023-03-23T22:51:52;3.42;;;3.13;;
20597;SDS011;10457;48.770;11.446;2023-03-23T22:57:14;5.93;;;3.38;;
20597;SDS011;10457;48.770;11.446;2023-03-23T23:02:37;4.30;;;2.88;;
20597;SDS011;10457;48.770;11.446;2023-03-23T23:07:58;5.65;;;3.80;;
20597;SDS011;10457;48.770;11.446;2023-03-23T23:13:21;5.10;;;3.17;;
20597;SDS011;10457;48.770;11.446;2023-03-23T23:18:45;5.13;;;3.42;;
20597;SDS011;10457;48.770;11.446;2023-03-23T23:24:07;4.13;;;3.20;;
20597;SDS011;10457;48.770;11.446;2023-03-23T23:29:28;6.35;;;3.60;;
20597;SDS011;10457;48.770;11.446;2023-03-23T23:34:51;4.50;;;3.53;;
20597;SDS011;10457;48.770;11.446;2023-03-23T23:40:13;4.90;;;3.28;;
20597;SDS011;10457;48.770;11.446;2023-03-23T23:45:35;5.43;;;3.63;;
20597;SDS011;10457;48.770;11.446;2023-03-23T23:50:59;6.97;;;3.35;;
20597;SDS011;10457;48.770;11.446;2023-03-23T23:56:20;4.82;;;3.70;;
